Home > Products > Valid Products > TAF

000
FTUS44 KLCH 011946 AAB
TAFLCH
TAF AMD
KLCH 011946Z 0120/0218 12012KT 6SM -TSRA SCT015 OVC035CB
      TEMPO 0120/0124 VRB15G25KT 2SM TSRA OVC015CB
     FM020000 10012KT P6SM VCSH BKN025 OVC035
      TEMPO 0208/0212 2SM TSRA OVC008CB
     FM021200 14014G22KT P6SM -SHRA VCTS BKN025 OVC035CB PROB30
      0212/0218 VRB15G25KT 2SM TSRA OVC008CB=



000
FTUS44 KLCH 011946 AAB
TAFLCH
TAF AMD
KLCH 011946Z 0120/0218 12012KT 6SM -TSRA SCT015 OVC035CB
      TEMPO 0120/0124 VRB15G25KT 2SM TSRA OVC015CB
     FM020000 10012KT P6SM VCSH BKN025 OVC035
      TEMPO 0208/0212 2SM TSRA OVC008CB
     FM021200 14014G22KT P6SM -SHRA VCTS BKN025 OVC035CB PROB30
      0212/0218 VRB15G25KT 2SM TSRA OVC008CB=



000
FTUS44 KLCH 011945 AAA
TAFBPT
TAF AMD
KBPT 011945Z 0120/0218 13010KT 6SM -TSRA SCT015 OVC025CB
      TEMPO 0120/0124 VRB15G25KT 2SM TSRA OVC015CB
     FM020000 10012KT P6SM VCSH BKN025 OVC035
      TEMPO 0208/0212 2SM TSRA OVC008CB
     FM021200 14014G22KT P6SM -SHRA VCTS BKN025 OVC035CB PROB30
      0212/0218 VRB15G25KT 2SM TSRA OVC008CB=



000
FTUS44 KLCH 011720
TAFBPT
TAF
KBPT 011720Z 0118/0218 14010KT 6SM -TSRA SCT025 OVC050CB
      TEMPO 0118/0122 VRB15G25KT 2SM TSRA OVC025CB
     FM020000 10012KT P6SM VCSH BKN025 OVC035
      TEMPO 0208/0212 2SM TSRA OVC008CB
     FM021200 14014G22KT P6SM -SHRA VCTS BKN025 OVC035CB PROB30
      0212/0218 VRB15G25KT 2SM TSRA OVC008CB=



000
FTUS44 KLCH 011720
TAFAEX
TAF
KAEX 011720Z 0118/0218 15008KT P6SM SCT025
     FM020000 10008KT P6SM VCSH BKN025 OVC035
      TEMPO 0208/0212 2SM TSRA OVC008CB
     FM021200 34005KT P6SM -SHRA VCTS BKN025 OVC035CB PROB30
      0212/0218 VRB15G25KT 2SM TSRA OVC008CB=



000
FTUS44 KLCH 011720
TAFLCH
TAF
KLCH 011720Z 0118/0218 14010KT 6SM -TSRA SCT025 OVC050CB
      TEMPO 0118/0122 VRB15G25KT 2SM TSRA OVC025CB
     FM020000 10012KT P6SM VCSH BKN025 OVC035
      TEMPO 0208/0212 2SM TSRA OVC008CB
     FM021200 14014G22KT P6SM -SHRA VCTS BKN025 OVC035CB PROB30
      0212/0218 VRB15G25KT 2SM TSRA OVC008CB=



000
FTUS44 KLCH 011720
TAFARA
TAF
KARA 011720Z 0118/0218 14010KT 6SM -TSRA SCT025 OVC050CB
      TEMPO 0118/0122 VRB15G25KT 2SM TSRA OVC025CB
     FM020000 10012KT P6SM VCSH BKN025 OVC035
      TEMPO 0208/0212 2SM TSRA OVC008CB
     FM021200 14014G22KT P6SM -SHRA VCTS BKN025 OVC035CB PROB30
      0212/0218 VRB15G25KT 2SM TSRA OVC008CB=



000
FTUS44 KLCH 011720
TAFLFT
TAF
KLFT 011720Z 0118/0218 14010KT 6SM -TSRA SCT025 OVC050CB
      TEMPO 0118/0122 VRB15G25KT 2SM TSRA OVC025CB
     FM020000 10010KT P6SM VCSH BKN025 OVC035
      TEMPO 0208/0212 2SM TSRA OVC008CB
     FM021200 14013G21KT P6SM -SHRA VCTS BKN025 OVC035CB PROB30
      0212/0218 VRB15G25KT 2SM TSRA OVC008CB=



000
FTUS44 KLCH 011349 AAA
TAFARA
TAF AMD
KARA 011349Z 0114/0212 36016G25KT 6SM TSRA SCT007 OVC025CB
      TEMPO 0114/0118 VRB20G35KT 1SM +TSRA OVC007CB
     FM011800 15010KT P6SM VCTS SCT020CB BKN035
      TEMPO 0118/0122 2SM TSRA OVC015CB
     FM020100 14008KT P6SM VCSH BKN015 PROB30 0206/0212 2SM SHRA
      BKN007=



000
FTUS44 KLCH 011348 AAB
TAFLFT
TAF AMD
KLFT 011348Z 0114/0212 04015G23KT 6SM -TSRA SCT008 OVC025CB
      TEMPO 0114/0118 VRB20G30KT 1SM +TSRA OVC007CB
     FM011800 15010KT P6SM VCTS SCT020CB BKN035
      TEMPO 0118/0122 2SM TSRA OVC015CB
     FM020100 14006KT P6SM VCSH BKN015 PROB30 0206/0212 2SM SHRA
      BKN007=



000
FTUS44 KLCH 011346 AAB
TAFLCH
TAF AMD
KLCH 011346Z 0114/0212 15010KT 6SM -TSRA SCT008 OVC025CB
      TEMPO 0114/0118 VRB10G25KT 1SM +TSRA OVC007CB
     FM011800 15010KT P6SM VCTS SCT020CB BKN035
      TEMPO 0118/0122 2SM TSRA OVC015CB
     FM020100 12006KT P6SM VCSH BKN015 PROB30 0206/0212 2SM SHRA
      BKN007=



000
FTUS44 KLCH 011345 AAA
TAFBPT
TAF AMD
KBPT 011345Z 0114/0212 VRB05KT 6SM BR VCTS SCT008 OVC025CB
      TEMPO 0114/0118 VRB15G25KT 1SM +TSRA OVC008CB
     FM011800 13008KT P6SM VCTS SCT020CB BKN035
      TEMPO 0118/0122 2SM TSRA OVC015CB
     FM020100 13006KT P6SM VCSH BKN015 PROB30 0206/0212 2SM SHRA
      BKN007=



000
FTUS44 KLCH 011255 AAA
TAFLFT
TAF AMD
KLFT 011255Z 0113/0212 16008KT P6SM VCTS SCT010 OVC018CB
      TEMPO 0113/0116 VRB10G25KT 1SM +TSRA BKN010CB
     FM011600 17008KT P6SM VCTS SCT012 OVC030CB
      TEMPO 0116/0120 VRB10G25KT 1SM +TSRA OVC007CB
     FM020100 14006KT P6SM VCSH BKN015 PROB30 0206/0212 2SM SHRA
      BKN007=



000
FTUS44 KLCH 011255 AAA
TAFLFT
TAF AMD
KLFT 011255Z 0113/0212 16008KT P6SM VCTS SCT010 OVC018CB
      TEMPO 0113/0116 VRB10G25KT 1SM +TSRA BKN010CB
     FM011600 17008KT P6SM VCTS SCT012 OVC030CB
      TEMPO 0116/0120 VRB10G25KT 1SM +TSRA OVC007CB
     FM020100 14006KT P6SM VCSH BKN015 PROB30 0206/0212 2SM SHRA
      BKN007=



000
FTUS44 KLCH 011133
TAFBPT
TAF
KBPT 011133Z 0112/0212 VRB05KT 6SM BR VCTS SCT008 OVC025CB
      TEMPO 0112/0116 VRB10G25KT 1SM +TSRA OVC007CB
     FM011600 13008KT P6SM VCTS SCT020CB BKN035
      TEMPO 0116/0120 2SM TSRA OVC015CB
     FM020100 13006KT P6SM VCSH BKN015 PROB30 0206/0212 2SM SHRA
      BKN007=



000
FTUS44 KLCH 011133
TAFAEX
TAF
KAEX 011133Z 0112/0212 VRB04KT 6SM BR VCSH BKN007 OVC015
      TEMPO 0113/0117 VRB10G25KT 2SM TSRA OVC007CB
     FM011700 15010KT P6SM VCTS SCT020CB BKN035
      TEMPO 0117/0121 2SM TSRA OVC015CB
     FM020100 13006KT P6SM VCSH BKN015 PROB30 0206/0212 2SM SHRA
      BKN007=



000
FTUS44 KLCH 011133
TAFLCH
TAF
KLCH 011133Z 0112/0212 15010KT 6SM BR VCTS SCT008 OVC025CB
      TEMPO 0112/0116 VRB10G25KT 1SM +TSRA OVC007CB
     FM011600 15010KT P6SM VCTS SCT020CB BKN035
      TEMPO 0116/0120 2SM TSRA OVC015CB
     FM020100 12006KT P6SM VCSH BKN015 PROB30 0206/0212 2SM SHRA
      BKN007=



000
FTUS44 KLCH 011133
TAFARA
TAF
KARA 011133Z 0112/0212 15010KT P6SM VCTS OVC012CB
     FM011400 16013KT P6SM VCTS SCT012 OVC030CB
      TEMPO 0116/0120 VRB10G25KT 1SM +TSRA OVC007CB
     FM020100 14008KT P6SM VCSH BKN015 PROB30 0206/0212 2SM SHRA
      BKN007=



000
FTUS44 KLCH 011133
TAFLFT
TAF
KLFT 011133Z 0112/0212 16005KT P6SM VCTS SCT010 OVC018CB
     FM011400 17008KT P6SM VCTS SCT012 OVC030CB
      TEMPO 0116/0120 VRB10G25KT 1SM +TSRA OVC007CB
     FM020100 14006KT P6SM VCSH BKN015 PROB30 0206/0212 2SM SHRA
      BKN007=



000
FTUS44 KLCH 011014 AAB
TAFLCH
TAF AMD
KLCH 011014Z 0110/0206 15010KT 6SM -TSRA BKN008 OVC015CB
      TEMPO 0110/0112 VRB10G25KT 1SM +TSRAGS OVC007CB
     FM011700 15010KT P6SM VCSH SCT020 BKN035
     FM020100 14006KT P6SM VCSH BKN015=



000
FTUS44 KLCH 011014 AAB
TAFLCH
TAF AMD
KLCH 011014Z 0110/0206 15010KT 6SM -TSRA BKN008 OVC015CB
      TEMPO 0110/0112 VRB10G25KT 1SM +TSRAGS OVC007CB
     FM011700 15010KT P6SM VCSH SCT020 BKN035
     FM020100 14006KT P6SM VCSH BKN015=



000
FTUS44 KLCH 010915 AAA
TAFBPT
TAF AMD
KBPT 010915Z 0109/0206 15010KT 5SM -TSRA SCT008 OVC025CB
      TEMPO 0109/0112 2SM TSRA BKN008 OVC015CB
     FM011300 05006KT P6SM VCSH OVC015
     FM011700 13008KT P6SM VCSH SCT020 BKN035
     FM020100 14006KT P6SM VCSH BKN015=



000
FTUS44 KLCH 010913 AAA
TAFLFT
TAF AMD
KLFT 010913Z 0109/0206 16005KT P6SM VCTS BKN015CB OVC030
      TEMPO 0109/0111 VRB10G25KT 1SM +TSRAGS OVC015CB
     FM011400 15007KT 5SM -SHRA SCT012 OVC030
     FM011700 17010KT 5SM -SHRA SCT020 BKN035
     FM020100 14006KT P6SM VCSH BKN015=



000
FTUS44 KLCH 010530
TAFLFT
TAF
KLFT 010530Z 0106/0206 16006KT 5SM -SHRA VCTS BKN015CB OVC025
     FM010800 16005KT 5SM BR VCSH OVC012
      TEMPO 0108/0112 -SHRA SCT010 OVC020
     FM011400 15007KT 5SM -SHRA SCT012 OVC030
     FM011700 17010KT 5SM -SHRA SCT020 BKN035
     FM020100 14006KT P6SM VCSH BKN015=



000
FTUS44 KLCH 010530
TAFLCH
TAF
KLCH 010530Z 0106/0206 16008KT P6SM VCSH BKN010 OVC018
     FM010800 VRB03KT 5SM -SHRA SCT008 OVC015
     FM011700 15010KT P6SM VCSH SCT020 BKN035 PROB30 0117/0123 3SM
      SHRA BKN020
     FM020100 14006KT P6SM VCSH BKN015=



000
FTUS44 KLCH 010530
TAFAEX
TAF
KAEX 010530Z 0106/0206 15008KT P6SM OVC012
     FM010800 16008KT 4SM BR VCSH OVC009
     FM011000 VRB04KT 5SM -SHRA SCT007 OVC020
     FM011700 15008KT P6SM VCSH SCT020 BKN035 PROB30 0117/0123 3SM
      SHRA BKN020
     FM020100 14006KT P6SM VCSH BKN015=



000
FTUS44 KLCH 010530
TAFBPT
TAF
KBPT 010530Z 0106/0206 15008KT 5SM BR VCSH BKN010 OVC018
     FM010800 VRB03KT 4SM BR BKN008 OVC015
      TEMPO 0109/0113 -SHRA SCT008 OVC025
     FM011300 05006KT P6SM VCSH OVC015
     FM011700 13008KT P6SM VCSH SCT020 BKN035 PROB30 0117/0123 3SM
      SHRA BKN020
     FM020100 14006KT P6SM VCSH BKN015=



000
FTUS44 KLCH 010530
TAFARA
TAF
KARA 010530Z 0106/0206 15010KT 5SM -SHRA VCTS BKN015CB OVC025
     FM010800 15008KT 5SM BR VCSH OVC012
      TEMPO 0108/0112 -SHRA SCT010 OVC020
     FM011400 15012KT 5SM -SHRA SCT012 OVC030
     FM011700 17012KT 5SM -SHRA SCT020 BKN035
     FM020100 14008KT P6SM VCSH BKN015=



000
FTUS44 KLCH 010410 AAB
TAFLFT
TAF AMD
KLFT 010410Z 0104/0124 16008KT P6SM FEW015 SCT025 BKN040
      TEMPO 0105/0108 4SM -SHRA
     FM010800 VRB03KT 6SM BR VCSH BKN012
     FM011200 16006KT P6SM VCSH SCT007 OVC015
     FM011600 18010KT P6SM VCSH SCT020 BKN035
      TEMPO 0116/0120 3SM SHRA BKN020 OVC030=



000
FTUS44 KLCH 010409 AAB
TAFARA
TAF AMD
KARA 010409Z 0104/0124 15008KT P6SM VCSH FEW018 SCT025 BKN040
      TEMPO 0104/0108 4SM -SHRA
     FM010800 18006KT P6SM VCSH BKN012
     FM011200 16006KT P6SM VCSH SCT007 OVC015
     FM011600 18010KT P6SM VCSH SCT020 BKN035
      TEMPO 0116/0120 3SM SHRA BKN020 OVC030=



000
FTUS44 KLCH 010157 AAA
TAFAEX
TAF AMD
KAEX 010157Z 0102/0124 15007KT P6SM SCT018 BKN025
     FM010400 16006KT P6SM BKN012
     FM010800 VRB03KT 4SM BR BKN005
     FM011400 15008KT P6SM VCSH SCT007 OVC015
     FM011700 19010KT P6SM VCSH SCT020 BKN035 PROB30 0118/0124 3SM
      SHRA BKN020=



000
FTUS44 KLCH 010157 AAA
TAFAEX
TAF AMD
KAEX 010157Z 0102/0124 15007KT P6SM SCT018 BKN025
     FM010400 16006KT P6SM BKN012
     FM010800 VRB03KT 4SM BR BKN005
     FM011400 15008KT P6SM VCSH SCT007 OVC015
     FM011700 19010KT P6SM VCSH SCT020 BKN035 PROB30 0118/0124 3SM
      SHRA BKN020=



000
FTUS44 KLCH 010156 AAA
TAFBPT
TAF AMD
KBPT 010156Z 0102/0124 15008KT P6SM BKN012
     FM010800 VRB03KT 4SM BR BKN005
     FM011400 VRB06KT P6SM VCSH SCT007 OVC015
     FM011700 15010KT P6SM VCSH SCT020 BKN035 PROB30 0118/0124 3SM
      SHRA BKN020=



000
FTUS44 KLCH 010156 AAA
TAFBPT
TAF AMD
KBPT 010156Z 0102/0124 15008KT P6SM BKN012
     FM010800 VRB03KT 4SM BR BKN005
     FM011400 VRB06KT P6SM VCSH SCT007 OVC015
     FM011700 15010KT P6SM VCSH SCT020 BKN035 PROB30 0118/0124 3SM
      SHRA BKN020=



000
FTUS44 KLCH 010107 AAA
TAFLFT
TAF AMD
KLFT 010107Z 0101/0124 16008KT P6SM FEW018 BKN025
     FM010400 18006KT P6SM BKN012
     FM010800 VRB03KT 6SM BR VCSH BKN005
     FM011200 16006KT P6SM VCSH SCT007 OVC015 PROB30 0112/0116 3SM
      SHRA BKN020
     FM011600 18010KT P6SM VCSH SCT020 BKN035
      TEMPO 0116/0120 3SM SHRA BKN020 OVC030=



000
FTUS44 KLCH 010107 AAA
TAFLCH
TAF AMD
KLCH 010107Z 0101/0124 16008KT P6SM BKN012
     FM010800 VRB03KT 4SM BR BKN005
     FM011400 15008KT P6SM VCSH SCT007 OVC015
     FM011700 17010KT P6SM VCSH SCT020 BKN035 PROB30 0118/0124 3SM
      SHRA BKN020=



000
FTUS44 KLCH 010107 AAA
TAFARA
TAF AMD
KARA 010107Z 0101/0124 15008KT P6SM FEW018 BKN025
     FM010400 18006KT P6SM BKN012
     FM010800 VRB03KT 6SM BR VCSH BKN005
     FM011200 16006KT P6SM VCSH SCT007 OVC015 PROB30 0112/0116 3SM
      SHRA BKN020
     FM011600 18010KT P6SM VCSH SCT020 BKN035
      TEMPO 0116/0120 3SM SHRA BKN020 OVC030=



000
FTUS44 KLCH 302334
TAFLCH
TAF
KLCH 302334Z 0100/0124 17007KT P6SM FEW018 SCT250
     FM010400 15006KT P6SM BKN012
     FM010800 VRB03KT 4SM BR BKN005
     FM011400 15008KT P6SM VCSH SCT007 OVC015
     FM011700 17010KT P6SM VCSH SCT020 BKN035 PROB30 0118/0124 3SM
      SHRA BKN020=



000
FTUS44 KLCH 302334
TAFBPT
TAF
KBPT 302334Z 0100/0124 16007KT P6SM FEW018 SCT250
     FM010400 15006KT P6SM BKN012
     FM010800 VRB03KT 4SM BR BKN005
     FM011400 VRB06KT P6SM VCSH SCT007 OVC015
     FM011700 15010KT P6SM VCSH SCT020 BKN035 PROB30 0118/0124 3SM
      SHRA BKN020=



000
FTUS44 KLCH 302334
TAFARA
TAF
KARA 302334Z 0100/0124 17008KT P6SM FEW018 SCT025 BKN040
     FM010400 18006KT P6SM BKN012
     FM010800 VRB03KT 6SM BR VCSH BKN005
     FM011200 16006KT P6SM VCSH SCT007 OVC015 PROB30 0112/0116 3SM
      SHRA BKN020
     FM011600 18010KT P6SM VCSH SCT020 BKN035
      TEMPO 0116/0120 3SM SHRA BKN020 OVC030=



000
FTUS44 KLCH 302334
TAFLFT
TAF
KLFT 302334Z 0100/0124 18008KT P6SM FEW018 SCT025 BKN040
     FM010400 18006KT P6SM BKN012
     FM010800 VRB03KT 6SM BR VCSH BKN005
     FM011200 16006KT P6SM VCSH SCT007 OVC015 PROB30 0112/0116 3SM
      SHRA BKN020
     FM011600 18010KT P6SM VCSH SCT020 BKN035
      TEMPO 0116/0120 3SM SHRA BKN020 OVC030=



000
FTUS44 KLCH 302334
TAFAEX
TAF
KAEX 302334Z 0100/0124 16007KT P6SM FEW018 SCT250
     FM010400 16006KT P6SM BKN012
     FM010800 VRB03KT 4SM BR BKN005
     FM011400 15008KT P6SM VCSH SCT007 OVC015
     FM011700 19010KT P6SM VCSH SCT020 BKN035 PROB30 0118/0124 3SM
      SHRA BKN020=



000
FTUS44 KLCH 302053 AAB
TAFARA
TAF AMD
KARA 302053Z 3021/0118 17012G20KT P6SM VCSH SCT035
     FM010000 16007KT P6SM SCT025 BKN035
      TEMPO 0108/0112 2SM BR BKN005
     FM011200 15012G20KT P6SM VCTS SCT015 OVC025CB PROB30 0112/0118
      VRB20G30KT 1SM +TSRA OVC008CB=



000
FTUS44 KLCH 302052 AAA
TAFLFT
TAF AMD
KLFT 302052Z 3021/0118 17008KT P6SM SCT035
     FM010000 16005KT P6SM SCT025 BKN035
      TEMPO 0108/0112 2SM BR BKN005
     FM011200 15012G20KT P6SM VCTS SCT015 OVC025CB PROB30 0112/0118
      VRB20G30KT 1SM +TSRA OVC008CB=



000
FTUS44 KLCH 302051 AAB
TAFLCH
TAF AMD
KLCH 302051Z 3021/0118 18006KT P6SM SCT035
     FM010000 16005KT P6SM SCT025 BKN035
      TEMPO 0108/0112 2SM BR BKN005
     FM011200 15012G20KT P6SM VCTS SCT015 OVC025CB PROB30 0112/0118
      VRB20G30KT 1SM +TSRA OVC008CB=



000
FTUS44 KLCH 302051 AAA
TAFBPT
TAF AMD
KBPT 302051Z 3021/0118 13009KT P6SM SCT035
     FM010000 15005KT P6SM SCT025 BKN035
      TEMPO 0108/0112 2SM BR BKN005
     FM011200 15012G20KT P6SM VCTS SCT015 OVC025CB PROB30 0112/0118
      VRB20G30KT 1SM +TSRA OVC008CB=



000
FTUS44 KLCH 302051 AAA
TAFAEX
TAF AMD
KAEX 302051Z 3021/0118 13009KT P6SM SCT035
     FM010000 19005KT P6SM SCT025 BKN035
      TEMPO 0108/0112 2SM BR BKN005
     FM011200 15007KT P6SM VCTS SCT015 OVC025CB PROB30 0112/0118
      VRB20G30KT 1SM +TSRA OVC008CB=



000
FTUS44 KLCH 302051 AAB
TAFLCH
TAF AMD
KLCH 302051Z 3021/0118 18006KT P6SM SCT035
     FM010000 16005KT P6SM SCT025 BKN035
      TEMPO 0108/0112 2SM BR BKN005
     FM011200 15012G20KT P6SM VCTS SCT015 OVC025CB PROB30 0112/0118
      VRB20G30KT 1SM +TSRA OVC008CB=



000
FTUS44 KLCH 301820 AAA
TAFARA
TAF AMD
KARA 301820Z 3018/0118 09014G22KT P6SM VCSH SCT025 BKN050
      TEMPO 3018/3020 3SM +SHRA OVC025
     FM302000 20010G18KT P6SM VCSH SCT025
     FM010000 19007KT P6SM BKN015 OVC025
      TEMPO 0108/0112 2SM BR BKN005
     FM011200 15012G20KT P6SM VCTS SCT015 OVC025CB PROB30 0112/0118
      VRB20G30KT 1SM +TSRA OVC008CB=



000
FTUS44 KLCH 301820 AAA
TAFARA
TAF AMD
KARA 301820Z 3018/0118 09014G22KT P6SM VCSH SCT025 BKN050
      TEMPO 3018/3020 3SM +SHRA OVC025
     FM302000 20010G18KT P6SM VCSH SCT025
     FM010000 19007KT P6SM BKN015 OVC025
      TEMPO 0108/0112 2SM BR BKN005
     FM011200 15012G20KT P6SM VCTS SCT015 OVC025CB PROB30 0112/0118
      VRB20G30KT 1SM +TSRA OVC008CB=



000
FTUS44 KLCH 301720
TAFBPT
TAF
KBPT 301720Z 3018/0118 13014G22KT P6SM SCT025
     FM010000 19007KT P6SM BKN015 OVC025
      TEMPO 0108/0112 2SM BR BKN005
     FM011200 15012G20KT P6SM VCTS SCT015 OVC025CB PROB30 0112/0118
      VRB20G30KT 1SM +TSRA OVC008CB=



000
FTUS44 KLCH 301720
TAFLCH
TAF
KLCH 301720Z 3018/0118 13014G22KT P6SM SCT025
     FM010000 19007KT P6SM BKN015 OVC025
      TEMPO 0108/0112 2SM BR BKN005
     FM011200 15012G20KT P6SM VCTS SCT015 OVC025CB PROB30 0112/0118
      VRB20G30KT 1SM +TSRA OVC008CB=



000
FTUS44 KLCH 301720
TAFLFT
TAF
KLFT 301720Z 3018/0118 18007KT 2SM +TSRA BKN015 OVC025CB
      TEMPO 3018/3020 2SM TSRA OVC008CB
     FM302000 20010G18KT P6SM VCSH SCT025
     FM010000 19007KT P6SM BKN015 OVC025
      TEMPO 0108/0112 2SM BR BKN005
     FM011200 15012G20KT P6SM VCTS SCT015 OVC025CB PROB30 0112/0118
      VRB20G30KT 1SM +TSRA OVC008CB=



000
FTUS44 KLCH 301720
TAFAEX
TAF
KAEX 301720Z 3018/0118 18008KT P6SM SCT025
     FM010000 19005KT P6SM BKN015 OVC025
      TEMPO 0108/0112 2SM BR BKN005
     FM011200 15007KT P6SM VCTS SCT015 OVC025CB PROB30 0112/0118
      VRB20G30KT 1SM +TSRA OVC008CB=



000
FTUS44 KLCH 301720
TAFARA
TAF
KARA 301720Z 3018/0118 18010G18KT 2SM +TSRA BKN015 OVC025CB
      TEMPO 3018/3020 VRB25G45KT 1/2SM +TSRA OVC008CB
     FM302000 20010G18KT P6SM VCSH SCT025
     FM010000 19007KT P6SM BKN015 OVC025
      TEMPO 0108/0112 2SM BR BKN005
     FM011200 15012G20KT P6SM VCTS SCT015 OVC025CB PROB30 0112/0118
      VRB20G30KT 1SM +TSRA OVC008CB=



000
FTUS44 KLCH 301553 AAB
TAFAEX
TAF AMD
KAEX 301553Z 3016/0112 08012G20KT 4SM -SHRA VCTS BKN025 OVC050CB
      TEMPO 3016/3018 VRB25G45KT 1/2SM +TSRA OVC007CB
     FM301800 20010G18KT P6SM VCTS SCT015CB OVC025
     FM010000 19005KT P6SM VCSH BKN015 OVC025
     FM010400 VRB03KT 4SM BR BKN007 OVC015=



000
FTUS44 KLCH 301534 AAA
TAFARA
TAF AMD
KARA 301534Z 3016/0112 16017G25KT P6SM -SHRA VCTS BKN025 OVC035CB
      TEMPO 3016/3020 VRB25G45KT 1/2SM +TSRA OVC007CB
     FM302000 20010G18KT P6SM VCTS SCT015CB OVC025
     FM010200 19005KT 4SM BR VCSH BKN015 OVC025=



000
FTUS44 KLCH 301532 AAA
TAFLFT
TAF AMD
KLFT 301532Z 3016/0112 15014G23KT 6SM -TSRA BR BKN025 OVC035CB
      TEMPO 3016/3020 VRB25G45KT 1/2SM +TSRA OVC007CB
     FM302000 20010G18KT P6SM VCTS SCT015CB OVC025
     FM010200 19005KT 4SM BR VCSH BKN015 OVC025=



000
FTUS44 KLCH 301530 AAB
TAFLCH
TAF AMD
KLCH 301530Z 3016/0112 09015G22KT 6SM -TSRA BR SCT025 OVC035CB
      TEMPO 3016/3019 VRB20G30KT 1SM +TSRA OVC007CB
     FM301900 20010G18KT P6SM VCTS SCT015CB OVC025
     FM010200 16005KT 5SM BR VCSH BKN015 OVC025=



000
FTUS44 KLCH 301530 AAB
TAFLCH
TAF AMD
KLCH 301530Z 3016/0112 09015G22KT 6SM -TSRA BR SCT025 OVC035CB
      TEMPO 3016/3019 VRB20G30KT 1SM +TSRA OVC007CB
     FM301900 20010G18KT P6SM VCTS SCT015CB OVC025
     FM010200 16005KT 5SM BR VCSH BKN015 OVC025=



000
FTUS44 KLCH 301529 AAA
TAFAEX
TAF AMD
KAEX 301529Z 3015/0112 09015G22KT 6SM -TSRA BR SCT025 OVC035CB
      TEMPO 3015/3019 VRB20G35KT 1SM +TSRA OVC007CB
     FM301900 20010G18KT P6SM VCTS SCT015CB OVC025
     FM010000 19005KT P6SM VCSH BKN015 OVC025
     FM010400 VRB03KT 4SM BR BKN007 OVC015=



000
FTUS44 KLCH 301529 AAA
TAFAEX
TAF AMD
KAEX 301529Z 3015/0112 09015G22KT 6SM -TSRA BR SCT025 OVC035CB
      TEMPO 3015/3019 VRB20G35KT 1SM +TSRA OVC007CB
     FM301900 20010G18KT P6SM VCTS SCT015CB OVC025
     FM010000 19005KT P6SM VCSH BKN015 OVC025
     FM010400 VRB03KT 4SM BR BKN007 OVC015=



000
FTUS44 KLCH 301528 AAA
TAFBPT
TAF AMD
KBPT 301528Z 3015/0112 16014G20KT 6SM TSRA BKN015CB OVC025
      TEMPO 3015/3019 VRB20G35KT 1SM +TSRA OVC007CB
     FM301900 19009KT P6SM OVC025
     FM010100 16007KT 5SM BR VCSH BKN015 OVC025=



000
FTUS44 KLCH 301528 AAA
TAFBPT
TAF AMD
KBPT 301528Z 3015/0112 16014G20KT 6SM TSRA BKN015CB OVC025
      TEMPO 3015/3019 VRB20G35KT 1SM +TSRA OVC007CB
     FM301900 19009KT P6SM OVC025
     FM010100 16007KT 5SM BR VCSH BKN015 OVC025=



000
FTUS44 KLCH 301510 AAA
TAFLCH
TAF AMD
KLCH 301510Z 3015/0112 00000KT P6SM -RA OVC045
      TEMPO 3015/3017 VRB15G30KT 1SM +TSRA OVC007CB
     FM301700 19010KT P6SM VCTS SCT015 BKN025CB
     FM010200 16005KT 5SM BR VCSH BKN015 OVC025=



000
FTUS44 KLCH 301510 AAA
TAFLCH
TAF AMD
KLCH 301510Z 3015/0112 00000KT P6SM -RA OVC045
      TEMPO 3015/3017 VRB15G30KT 1SM +TSRA OVC007CB
     FM301700 19010KT P6SM VCTS SCT015 BKN025CB
     FM010200 16005KT 5SM BR VCSH BKN015 OVC025=



000
FTUS44 KLCH 301139
TAFAEX
TAF
KAEX 301139Z 3012/0112 VRB04KT P6SM VCTS BKN025CB OVC040
     FM301500 15010G18KT 4SM TSRA BKN015CB OVC025
      TEMPO 3015/3018 VRB15G30KT 1SM +TSRA OVC007CB
     FM301800 20010G18KT P6SM VCTS SCT015CB OVC025
     FM010000 19005KT P6SM VCSH BKN015 OVC025
     FM010400 VRB03KT 4SM BR BKN007 OVC015=



000
FTUS44 KLCH 301139
TAFLFT
TAF
KLFT 301139Z 3012/0112 16009KT P6SM VCSH BKN015
     FM301400 17012G18KT P6SM VCTS SCT007 BKN015CB
      TEMPO 3014/3017 4SM -TSRA
     FM301700 18010G18KT 4SM TSRA BKN015CB OVC025
      TEMPO 3017/3019 VRB15G30KT 1SM +TSRA OVC007CB
     FM301900 20010G18KT P6SM VCTS SCT015CB OVC025
     FM010200 19005KT 4SM BR VCSH BKN015 OVC025=



000
FTUS44 KLCH 301139
TAFBPT
TAF
KBPT 301139Z 3012/0112 16014G20KT 4SM TSRA BKN015CB OVC025
      TEMPO 3012/3015 VRB15G30KT 1SM +TSRA OVC007CB
     FM301500 19012KT P6SM VCTS SCT015 BKN025CB
      TEMPO 3016/3018 2SM TSRA BR
     FM010100 16007KT 5SM BR VCSH BKN015 OVC025=



000
FTUS44 KLCH 301139
TAFLCH
TAF
KLCH 301139Z 3012/0112 15011KT P6SM VCTS BKN015CB OVC025
      TEMPO 3012/3014 2SM TSRA BR BKN007CB
     FM301400 17012G18KT 4SM TSRA OVC015CB
      TEMPO 3014/3017 VRB15G30KT 1SM +TSRA OVC007CB
     FM301700 19010KT P6SM VCTS SCT015 BKN025CB
     FM010200 16005KT 5SM BR VCSH BKN015 OVC025=



000
FTUS44 KLCH 301139
TAFARA
TAF
KARA 301139Z 3012/0112 15012G18KT P6SM VCSH BKN015
     FM301400 17014G20KT P6SM VCTS SCT007 BKN015CB
      TEMPO 3014/3017 4SM -TSRA
     FM301700 18015G22KT 4SM TSRA BKN015CB OVC025
      TEMPO 3017/3019 VRB20G30KT 1SM +TSRA OVC007CB
     FM301900 20010G18KT P6SM VCTS SCT015CB OVC025
     FM010200 19005KT 4SM BR VCSH BKN015 OVC025=



000
FTUS44 KLCH 301139
TAFLCH
TAF
KLCH 301139Z 3012/0112 15011KT P6SM VCTS BKN015CB OVC025
      TEMPO 3012/3014 2SM TSRA BR BKN007CB
     FM301400 17012G18KT 4SM TSRA OVC015CB
      TEMPO 3014/3017 VRB15G30KT 1SM +TSRA OVC007CB
     FM301700 19010KT P6SM VCTS SCT015 BKN025CB
     FM010200 16005KT 5SM BR VCSH BKN015 OVC025=



000
FTUS44 KLCH 301139
TAFAEX
TAF
KAEX 301139Z 3012/0112 VRB04KT P6SM VCTS BKN025CB OVC040
     FM301500 15010G18KT 4SM TSRA BKN015CB OVC025
      TEMPO 3015/3018 VRB15G30KT 1SM +TSRA OVC007CB
     FM301800 20010G18KT P6SM VCTS SCT015CB OVC025
     FM010000 19005KT P6SM VCSH BKN015 OVC025
     FM010400 VRB03KT 4SM BR BKN007 OVC015=



000
FTUS44 KLCH 301139
TAFARA
TAF
KARA 301139Z 3012/0112 15012G18KT P6SM VCSH BKN015
     FM301400 17014G20KT P6SM VCTS SCT007 BKN015CB
      TEMPO 3014/3017 4SM -TSRA
     FM301700 18015G22KT 4SM TSRA BKN015CB OVC025
      TEMPO 3017/3019 VRB20G30KT 1SM +TSRA OVC007CB
     FM301900 20010G18KT P6SM VCTS SCT015CB OVC025
     FM010200 19005KT 4SM BR VCSH BKN015 OVC025=



000
FTUS44 KLCH 301139
TAFBPT
TAF
KBPT 301139Z 3012/0112 16014G20KT 4SM TSRA BKN015CB OVC025
      TEMPO 3012/3015 VRB15G30KT 1SM +TSRA OVC007CB
     FM301500 19012KT P6SM VCTS SCT015 BKN025CB
      TEMPO 3016/3018 2SM TSRA BR
     FM010100 16007KT 5SM BR VCSH BKN015 OVC025=



000
FTUS44 KLCH 301139
TAFLFT
TAF
KLFT 301139Z 3012/0112 16009KT P6SM VCSH BKN015
     FM301400 17012G18KT P6SM VCTS SCT007 BKN015CB
      TEMPO 3014/3017 4SM -TSRA
     FM301700 18010G18KT 4SM TSRA BKN015CB OVC025
      TEMPO 3017/3019 VRB15G30KT 1SM +TSRA OVC007CB
     FM301900 20010G18KT P6SM VCTS SCT015CB OVC025
     FM010200 19005KT 4SM BR VCSH BKN015 OVC025=



000
FTUS44 KLCH 301033 AAA
TAFLCH
TAF AMD
KLCH 301033Z 3011/0106 16013KT P6SM VCTS BKN015CB
      TEMPO 3011/3014 2SM TSRA BR BKN007CB
     FM301400 17012G18KT 4SM TSRA OVC015CB
      TEMPO 3014/3017 VRB15G30KT 1SM +TSRA OVC007CB
     FM301700 19011KT P6SM VCTS SCT015 BKN025CB=



000
FTUS44 KLCH 300520
TAFLFT
TAF
KLFT 300520Z 3006/0106 16010KT P6SM VCSH SCT015 BKN025
     FM301400 17012KT P6SM VCTS SCT007 BKN015CB
      TEMPO 3016/3020 2SM TSRA BR
     FM302000 19014KT P6SM VCTS SCT015 BKN025CB
      TEMPO 3020/3024 2SM TSRA BR=



000
FTUS44 KLCH 300520
TAFAEX
TAF
KAEX 300520Z 3006/0106 15012KT P6SM VCSH SCT015 BKN025
     FM301200 14011KT P6SM VCTS SCT007 BKN015CB
      TEMPO 3014/3018 2SM TSRA BR
     FM301800 19012KT P6SM VCTS SCT015 BKN025CB
      TEMPO 3018/3022 2SM TSRA BR=



000
FTUS44 KLCH 300520
TAFLCH
TAF
KLCH 300520Z 3006/0106 16013KT P6SM VCSH BKN015
     FM301200 15010KT P6SM VCTS SCT007 BKN015CB
      TEMPO 3014/3018 2SM TSRA BR
     FM301800 19011KT P6SM VCTS SCT015 BKN025CB
      TEMPO 3018/3022 2SM TSRA BR=



000
FTUS44 KLCH 300520
TAFBPT
TAF
KBPT 300520Z 3006/0106 16015KT P6SM VCSH BKN015
     FM301000 17014KT P6SM VCTS SCT007 BKN015CB
      TEMPO 3012/3016 2SM TSRA BR
     FM301600 19011KT P6SM VCTS SCT015 BKN025CB
      TEMPO 3016/3020 2SM TSRA BR=



000
FTUS44 KLCH 300520
TAFARA
TAF
KARA 300520Z 3006/0106 16013KT P6SM VCSH SCT015 BKN025
     FM301400 17014KT P6SM VCTS SCT007 BKN015CB
      TEMPO 3016/3020 2SM TSRA BR
     FM302000 18016KT P6SM VCTS SCT015 BKN025CB
      TEMPO 3020/3024 2SM TSRA BR=



000
FTUS44 KLCH 300520
TAFAEX
TAF
KAEX 300520Z 3006/0106 15012KT P6SM VCSH SCT015 BKN025
     FM301200 14011KT P6SM VCTS SCT007 BKN015CB
      TEMPO 3014/3018 2SM TSRA BR
     FM301800 19012KT P6SM VCTS SCT015 BKN025CB
      TEMPO 3018/3022 2SM TSRA BR=



000
FTUS44 KLCH 300520
TAFBPT
TAF
KBPT 300520Z 3006/0106 16015KT P6SM VCSH BKN015
     FM301000 17014KT P6SM VCTS SCT007 BKN015CB
      TEMPO 3012/3016 2SM TSRA BR
     FM301600 19011KT P6SM VCTS SCT015 BKN025CB
      TEMPO 3016/3020 2SM TSRA BR=



000
FTUS44 KLCH 300520
TAFARA
TAF
KARA 300520Z 3006/0106 16013KT P6SM VCSH SCT015 BKN025
     FM301400 17014KT P6SM VCTS SCT007 BKN015CB
      TEMPO 3016/3020 2SM TSRA BR
     FM302000 18016KT P6SM VCTS SCT015 BKN025CB
      TEMPO 3020/3024 2SM TSRA BR=



000
FTUS44 KLCH 300520
TAFLFT
TAF
KLFT 300520Z 3006/0106 16010KT P6SM VCSH SCT015 BKN025
     FM301400 17012KT P6SM VCTS SCT007 BKN015CB
      TEMPO 3016/3020 2SM TSRA BR
     FM302000 19014KT P6SM VCTS SCT015 BKN025CB
      TEMPO 3020/3024 2SM TSRA BR=



000
FTUS44 KLCH 300520
TAFLCH
TAF
KLCH 300520Z 3006/0106 16013KT P6SM VCSH BKN015
     FM301200 15010KT P6SM VCTS SCT007 BKN015CB
      TEMPO 3014/3018 2SM TSRA BR
     FM301800 19011KT P6SM VCTS SCT015 BKN025CB
      TEMPO 3018/3022 2SM TSRA BR=



000
FTUS44 KLCH 300314 AAA
TAFBPT
TAF AMD
KBPT 300314Z 3003/3024 16014G21KT P6SM VCSH SCT007 BKN015
     FM300600 16014G21KT P6SM VCTS SCT007 OVC015CB
      TEMPO 3008/3012 4SM TSRA BR BKN007CB
     FM301200 17011KT 4SM TSRA BR OVC015CB
     FM301800 18010KT P6SM VCTS BKN025CB=



000
FTUS44 KLCH 300314 AAA
TAFBPT
TAF AMD
KBPT 300314Z 3003/3024 16014G21KT P6SM VCSH SCT007 BKN015
     FM300600 16014G21KT P6SM VCTS SCT007 OVC015CB
      TEMPO 3008/3012 4SM TSRA BR BKN007CB
     FM301200 17011KT 4SM TSRA BR OVC015CB
     FM301800 18010KT P6SM VCTS BKN025CB=



000
FTUS44 KLCH 300116 AAA
TAFLCH
TAF AMD
KLCH 300116Z 3001/3024 16015G22KT P6SM VCSH BKN015
     FM300600 16013KT P6SM VCTS SCT007 OVC015CB
      TEMPO 3011/3015 4SM TSRA BR BKN007CB
     FM301500 16010G18KT 4SM TSRA BR OVC015CB
     FM302000 19011KT P6SM VCTS BKN025CB=



000
FTUS44 KLCH 300116 AAA
TAFLCH
TAF AMD
KLCH 300116Z 3001/3024 16015G22KT P6SM VCSH BKN015
     FM300600 16013KT P6SM VCTS SCT007 OVC015CB
      TEMPO 3011/3015 4SM TSRA BR BKN007CB
     FM301500 16010G18KT 4SM TSRA BR OVC015CB
     FM302000 19011KT P6SM VCTS BKN025CB=



000
FTUS44 KLCH 292338
TAFLCH
TAF
KLCH 292338Z 3000/3024 15015G22KT P6SM VCSH SCT015 BKN025
     FM300600 16013KT P6SM VCTS SCT007 OVC015CB
      TEMPO 3011/3015 4SM TSRA BR BKN007CB
     FM301500 16010G18KT 4SM TSRA BR OVC015CB
     FM302000 19011KT P6SM VCTS BKN025CB=



000
FTUS44 KLCH 292338
TAFAEX
TAF
KAEX 292338Z 3000/3024 15014G21KT P6SM VCSH SCT025 BKN250
     FM300600 16012KT P6SM VCTS SCT007 OVC015CB
      TEMPO 3011/3015 4SM TSRA BR BKN007CB
     FM301500 16010KT 4SM TSRA BR OVC015CB
     FM302000 18010KT P6SM VCTS BKN025CB=



000
FTUS44 KLCH 292338
TAFBPT
TAF
KBPT 292338Z 3000/3024 16016G24KT P6SM VCSH SCT015 BKN025
     FM300400 16015G22KT P6SM VCTS SCT007 OVC015CB
      TEMPO 3008/3012 4SM TSRA BR BKN007CB
     FM301200 17011KT 4SM TSRA BR OVC015CB
     FM301800 18010KT P6SM VCTS BKN025CB=



000
FTUS44 KLCH 292338
TAFLFT
TAF
KLFT 292338Z 3000/3024 15010G18KT P6SM VCSH SCT015 BKN025
     FM300600 16013KT P6SM VCSH SCT007 OVC015
     FM301500 18010KT P6SM VCTS SCT007 OVC015CB
      TEMPO 3015/3018 4SM TSRA BR BKN007CB
     FM301800 16010G18KT 4SM TSRA BR OVC015CB=



000
FTUS44 KLCH 292338
TAFARA
TAF
KARA 292338Z 3000/3024 15010G18KT P6SM VCSH SCT015 BKN025
     FM300600 16013KT P6SM VCSH SCT007 OVC015
     FM301500 18010KT P6SM VCTS SCT007 OVC015CB
      TEMPO 3015/3018 4SM TSRA BR BKN007CB
     FM301800 16010G18KT 4SM TSRA BR OVC015CB=



000
FTUS44 KLCH 292109 AAA
TAFLFT
TAF AMD
KLFT 292109Z 2921/3018 16016G24KT P6SM BKN025
     FM300100 16011G17KT P6SM VCSH BKN020
     FM300900 16009G16KT P6SM SHRA SCT009 OVC015=



000
FTUS44 KLCH 292017 AAA
TAFARA
TAF AMD
KARA 292017Z 2920/3018 16020G30KT P6SM BKN025
     FM300100 16011G17KT P6SM VCSH BKN020
     FM300900 16009G16KT P6SM SHRA SCT009 OVC015=



000
FTUS44 KLCH 291720
TAFLFT
TAF
KLFT 291720Z 2918/3018 16016G24KT P6SM SCT025
     FM300100 16011G17KT P6SM VCSH BKN020
     FM300900 16009G16KT P6SM SHRA SCT009 OVC015=



000
FTUS44 KLCH 291720
TAFBPT
TAF
KBPT 291720Z 2918/3018 16015G27KT P6SM BKN020
     FM300000 16012G21KT P6SM VCSH BKN020
     FM300600 17010KT P6SM SHRA SCT007 OVC020 PROB30 3009/3015 4SM
      SHRA OVC007=



000
FTUS44 KLCH 291720
TAFARA
TAF
KARA 291720Z 2918/3018 16016G24KT P6SM SCT025
     FM300100 16011G17KT P6SM VCSH BKN020
     FM300900 16009G16KT P6SM SHRA SCT009 OVC015=



000
FTUS44 KLCH 291720
TAFLCH
TAF
KLCH 291720Z 2918/3018 16016G27KT P6SM BKN025
     FM300000 16012G21KT P6SM VCSH BKN025
     FM300600 17012KT P6SM SHRA SCT009 OVC020 PROB30 3010/3016 4SM
      SHRA OVC007=



000
FTUS44 KLCH 291720
TAFAEX
TAF
KAEX 291720Z 2918/3018 16016G24KT P6SM SCT025 BKN050
     FM300400 15010G18KT P6SM VCTS SCT009 OVC018CB PROB30 3006/3012
      4SM SHRA OVC007
     FM301200 17012G19KT 5SM -RA VCTS SCT010 OVC025CB=



000
FTUS44 KLCH 291720
TAFLFT
TAF
KLFT 291720Z 2918/3018 16016G24KT P6SM SCT025
     FM300100 16011G17KT P6SM VCSH BKN020
     FM300900 16009G16KT P6SM SHRA SCT009 OVC015=



000
FTUS44 KLCH 291720
TAFAEX
TAF
KAEX 291720Z 2918/3018 16016G24KT P6SM SCT025 BKN050
     FM300400 15010G18KT P6SM VCTS SCT009 OVC018CB PROB30 3006/3012
      4SM SHRA OVC007
     FM301200 17012G19KT 5SM -RA VCTS SCT010 OVC025CB=



000
FTUS44 KLCH 291720
TAFARA
TAF
KARA 291720Z 2918/3018 16016G24KT P6SM SCT025
     FM300100 16011G17KT P6SM VCSH BKN020
     FM300900 16009G16KT P6SM SHRA SCT009 OVC015=



000
FTUS44 KLCH 291720
TAFLCH
TAF
KLCH 291720Z 2918/3018 16016G27KT P6SM BKN025
     FM300000 16012G21KT P6SM VCSH BKN025
     FM300600 17012KT P6SM SHRA SCT009 OVC020 PROB30 3010/3016 4SM
      SHRA OVC007=



000
FTUS44 KLCH 291720
TAFBPT
TAF
KBPT 291720Z 2918/3018 16015G27KT P6SM BKN020
     FM300000 16012G21KT P6SM VCSH BKN020
     FM300600 17010KT P6SM SHRA SCT007 OVC020 PROB30 3009/3015 4SM
      SHRA OVC007=



000
FTUS44 KLCH 291135
TAFLCH
TAF
KLCH 291135Z 2912/3012 15012G18KT P6SM OVC015
     FM291500 15014G20KT P6SM BKN025
     FM291700 16016G24KT P6SM SCT025 BKN050
     FM300000 16012G18KT P6SM VCSH BKN030
     FM300600 15010G16KT 4SM SHRA SCT009 OVC020=



000
FTUS44 KLCH 291135
TAFAEX
TAF
KAEX 291135Z 2912/3012 14012G18KT P6SM OVC015
     FM291400 15014G20KT P6SM BKN025
     FM291700 16016G24KT P6SM SCT025 BKN050
     FM300000 16012G18KT P6SM VCSH BKN030
     FM300600 15010G16KT 4SM SHRA SCT009 OVC020=



000
FTUS44 KLCH 291135
TAFBPT
TAF
KBPT 291135Z 2912/3012 15012G18KT P6SM BKN015
     FM291500 15015G22KT P6SM BKN025
     FM291700 15018G26KT P6SM SCT025 BKN050
     FM300100 16016G24KT P6SM VCSH BKN030
     FM300400 15014G20KT 4SM SHRA SCT009 OVC020=



000
FTUS44 KLCH 291135
TAFARA
TAF
KARA 291135Z 2912/3012 15010G16KT P6SM OVC006
      TEMPO 2912/2914 4SM BR
     FM291600 15016G24KT P6SM BKN025
     FM291800 16019G28KT P6SM SCT025 BKN050
     FM300100 16014G20KT P6SM VCSH BKN025
     FM300900 16012G18KT 4SM SHRA SCT009 OVC015=



000
FTUS44 KLCH 291135
TAFLFT
TAF
KLFT 291135Z 2912/3012 15008KT P6SM OVC010
      TEMPO 2912/2914 4SM BR
     FM291600 15015G22KT P6SM BKN025
     FM291800 16016G24KT P6SM SCT025 BKN050
     FM300100 16011G17KT P6SM VCSH BKN025
     FM300900 16010G16KT 4SM SHRA SCT009 OVC015=



000
FTUS44 KLCH 291135
TAFLCH
TAF
KLCH 291135Z 2912/3012 15012G18KT P6SM OVC015
     FM291500 15014G20KT P6SM BKN025
     FM291700 16016G24KT P6SM SCT025 BKN050
     FM300000 16012G18KT P6SM VCSH BKN030
     FM300600 15010G16KT 4SM SHRA SCT009 OVC020=



000
FTUS44 KLCH 291135
TAFAEX
TAF
KAEX 291135Z 2912/3012 14012G18KT P6SM OVC015
     FM291400 15014G20KT P6SM BKN025
     FM291700 16016G24KT P6SM SCT025 BKN050
     FM300000 16012G18KT P6SM VCSH BKN030
     FM300600 15010G16KT 4SM SHRA SCT009 OVC020=



000
FTUS44 KLCH 291135
TAFBPT
TAF
KBPT 291135Z 2912/3012 15012G18KT P6SM BKN015
     FM291500 15015G22KT P6SM BKN025
     FM291700 15018G26KT P6SM SCT025 BKN050
     FM300100 16016G24KT P6SM VCSH BKN030
     FM300400 15014G20KT 4SM SHRA SCT009 OVC020=



000
FTUS44 KLCH 291135
TAFLFT
TAF
KLFT 291135Z 2912/3012 15008KT P6SM OVC010
      TEMPO 2912/2914 4SM BR
     FM291600 15015G22KT P6SM BKN025
     FM291800 16016G24KT P6SM SCT025 BKN050
     FM300100 16011G17KT P6SM VCSH BKN025
     FM300900 16010G16KT 4SM SHRA SCT009 OVC015=



000
FTUS44 KLCH 291135
TAFARA
TAF
KARA 291135Z 2912/3012 15010G16KT P6SM OVC006
      TEMPO 2912/2914 4SM BR
     FM291600 15016G24KT P6SM BKN025
     FM291800 16019G28KT P6SM SCT025 BKN050
     FM300100 16014G20KT P6SM VCSH BKN025
     FM300900 16012G18KT 4SM SHRA SCT009 OVC015=



000
FTUS44 KLCH 290520
TAFLCH
TAF
KLCH 290520Z 2906/3006 15012G18KT P6SM BKN015
     FM290800 15012G18KT P6SM BKN007
     FM291400 15013G19KT P6SM BKN025
     FM291800 16018G24KT P6SM SCT025 BKN050 PROB30 3003/3006 4SM
      TSRA BKN025CB=



000
FTUS44 KLCH 290520
TAFARA
TAF
KARA 290520Z 2906/3006 15010KT P6SM BKN015
     FM290800 14008KT 5SM BR SCT003 BKN007
      TEMPO 2910/2913 2SM BR BKN003
     FM291400 15014G21KT P6SM BKN015
     FM291800 16018G24KT P6SM SCT025 BKN050=



000
FTUS44 KLCH 290520
TAFAEX
TAF
KAEX 290520Z 2906/3006 14008KT P6SM BKN025
     FM291000 14008KT P6SM BKN015
     FM291400 14014G21KT P6SM BKN025
     FM291800 17016G24KT P6SM SCT025 BKN050 PROB30 3003/3006 4SM
      TSRA BKN025CB=



000
FTUS44 KLCH 290520
TAFBPT
TAF
KBPT 290520Z 2906/3006 15014G21KT P6SM BKN012
     FM290800 15014G21KT P6SM BKN007
     FM291400 15017G23KT P6SM BKN025
     FM291800 15018G24KT P6SM SCT025 BKN050 PROB30 3000/3006 4SM
      TSRA BKN025CB=



000
FTUS44 KLCH 290520
TAFLFT
TAF
KLFT 290520Z 2906/3006 15007KT P6SM BKN015
     FM290800 15007KT 5SM BR SCT003 BKN007
      TEMPO 2910/2913 2SM BR BKN003
     FM291400 15013G19KT P6SM BKN015
     FM291800 16018G24KT P6SM SCT025 BKN050=



000
FTUS44 KLCH 290353 AAB
TAFAEX
TAF AMD
KAEX 290353Z 2904/2924 14007KT P6SM BKN015
     FM291200 14011KT 3SM BR OVC009
     FM291500 15013KT P6SM BKN015
     FM291800 17016G24KT P6SM SCT025 BKN050=



000
FTUS44 KLCH 290351 AAB
TAFBPT
TAF AMD
KBPT 290351Z 2904/2924 13014G21KT P6SM BKN012
     FM290900 16013KT 4SM BR OVC007
     FM291500 16015G22KT P6SM BKN025
     FM291800 16018G25KT P6SM SCT025 BKN050=



000
FTUS44 KLCH 290350 AAB
TAFLCH
TAF AMD
KLCH 290350Z 2904/2924 15012G18KT P6SM BKN015
     FM290900 15010KT 4SM BR OVC007
     FM291500 15014KT P6SM BKN025
     FM291800 16017G24KT P6SM SCT025 BKN050=



000
FTUS44 KLCH 290230 AAA
TAFARA
TAF AMD
KARA 290230Z 2903/2924 15010KT P6SM BKN012
     FM290900 14009KT 4SM BR OVC004
     FM291500 15016G24KT P6SM BKN025
     FM291800 16017G25KT P6SM SCT025 BKN050=



000
FTUS44 KLCH 290219 AAA
TAFLFT
TAF AMD
KLFT 290219Z 2902/2924 13005KT P6SM BKN015
      TEMPO 2902/2904 BKN015
     FM290600 15005KT P6SM BKN015
     FM291500 16011KT P6SM BKN025
     FM291800 17015G22KT P6SM SCT025 BKN050=



000
FTUS44 KLCH 290216 AAA
TAFBPT
TAF AMD
KBPT 290216Z 2902/2924 13012KT P6SM BKN015
     FM290900 16013KT 4SM BR OVC007
     FM291500 16015G22KT P6SM BKN025
     FM291800 16018G25KT P6SM SCT025 BKN050=



000
FTUS44 KLCH 290215 AAB
TAFLCH
TAF AMD
KLCH 290215Z 2902/2924 13010KT P6SM BKN015
     FM290900 15010KT 4SM BR OVC007
     FM291500 15014KT P6SM BKN025
     FM291800 16017G24KT P6SM SCT025 BKN050=



000
FTUS44 KLCH 290059 AAA
TAFAEX
TAF AMD
KAEX 290059Z 2901/2924 13011KT P6SM VCSH SCT040 BKN080
     FM290600 12005KT P6SM BKN012
     FM291200 14011KT 3SM BR OVC009
     FM291500 15013KT P6SM BKN015
     FM291800 17016G24KT P6SM SCT025 BKN050=



000
FTUS44 KLCH 282325
TAFLCH
TAF
KLCH 282325Z 2900/2924 12009KT P6SM BKN025
      TEMPO 2900/2902 SCT025 BKN050
     FM290700 15009KT P6SM BKN015
     FM290900 15010KT 4SM BR OVC007
     FM291500 15014KT P6SM BKN025
     FM291800 16017G24KT P6SM SCT025 BKN050=



000
FTUS44 KLCH 282325
TAFAEX
TAF
KAEX 282325Z 2900/2924 12006KT P6SM SCT060
     FM290600 12005KT P6SM BKN012
     FM291200 14011KT 3SM BR OVC009
     FM291500 15013KT P6SM BKN015
     FM291800 17016G24KT P6SM SCT025 BKN050=



000
FTUS44 KLCH 282325
TAFARA
TAF
KARA 282325Z 2900/2924 15011KT P6SM VCSH SCT035 BKN050
     FM290500 15010KT P6SM BKN012
     FM290900 14009KT 4SM BR OVC004
     FM291500 15016G24KT P6SM BKN025
     FM291800 16017G25KT P6SM SCT025 BKN050=



000
FTUS44 KLCH 282325
TAFBPT
TAF
KBPT 282325Z 2900/2924 12012KT P6SM BKN025
      TEMPO 2900/2902 SCT025 BKN040
     FM290700 15012KT P6SM BKN015
     FM290900 16013KT 4SM BR OVC007
     FM291500 16015G22KT P6SM BKN025
     FM291800 16018G25KT P6SM SCT025 BKN050=



000
FTUS44 KLCH 282325
TAFLFT
TAF
KLFT 282325Z 2900/2924 15010KT P6SM VCSH SCT035 BKN050
     FM290600 15005KT P6SM BKN012
     FM291500 16011KT P6SM BKN025
     FM291800 17015G22KT P6SM SCT025 BKN050=



    US Dept of Commerce
    National Oceanic and Atmospheric Administration
    National Weather Service
    1325 East West Highway
    Silver Spring, MD 20910
    Page Author: NWS Internet Services Team
Disclaimer
Information Quality
Credits
Glossary
Privacy Policy
Freedom of Information Act (FOIA)
About Us
Career Opportunities